首页
METAR-TAF:

METAR-TAF

机场 :

馬里伯爾愛德華·盧希揚機場

马里博尔, 斯洛文尼亚

纬度: 46-29N, 经度: 015-41E, 海拔: 264米

当前天气观测

该预报发布于33分钟前的15:30 UTC
风速2节,风向多变
温度 2°C
湿度 93%
气压 989 hPa
能见度10公里或以上
阴天层高于3000英尺
小毛毛雨

METAR: LJMB 131530Z VRB02KT 9999 -DZ OVC030 02/01 Q0989 R99/210095

时间: 17:03 (16:03 UTC)

预报

该预报发布于2小时和3分钟前的14:00 UTC
预报有效从13日的 15点(UTC)到 14日的 15点(UTC)
风速5节,风向南转南东
能见度10公里或以上
多云层高于2500英尺
阴天层高于4000英尺
短暂存在
从 13日的 15点(UTC)到 13日的 17点(UTC)
能見度: 6000
多云层高于1500英尺
阴天层高于3000英尺
小雨, 雪
成为
从 13日的 17点(UTC)到 13日的 19点(UTC)
风速8节,风向
能見度: 2000
散云层高于500英尺
阴天层高于2500英尺
雪, 轻雾
几率 40% :
短暂存在
从 13日的 18点(UTC)到 13日的 24点(UTC)
风速15节,风向
能見度: 0500
层高于300英尺
大雪
成为
从 14日的 03点(UTC)到 14日的 06点(UTC)
能见度10公里或以上
散云层高于1000英尺
多云层高于9000英尺
成为
从 14日的 08点(UTC)到 14日的 11点(UTC)
风速5节,风向
能见度10公里或以上
1500米以下无云,无积雨云

TAF: LJMB 131400Z 1315/1415 16005KT 9999 BKN025 OVC040 TEMPO 1315/1317 6000 -RASN BKN015 OVC030 BECMG 1317/1319 36008KT 2000 SN BR SCT005 OVC025 PROB40 TEMPO 1318/1324 36015KT 0500 +SN VV003 BECMG 1403/1406 9999 NSW SCT010 BKN090 BECMG 1408/1411 18005KT CAVOK

超过4000个机场的气象观测和天气预报(METAR&TAF报告)。

可查询的气象台以黄色和红色小点在地图上表示。

将鼠标移到小点上方,可查看气象台名称。

然后点击查看天气观测和预报。

如需切换地图:点击带黑十字的绿色按钮放大地图;点击带横线的绿色按钮缩小地图;或者点击绿色箭头查看邻近地区的地图。


METAR-TAF: